This is the latest recevied weather packets stored in our database for station/object F5ZQC-13. If no packets are shown the sender has not sent any weather packets the latest 10 day(s).
| Time | Temp. | Humidity | Pressure | Rain* | Wind** | Luminosity | Snow |
|---|---|---|---|---|---|---|---|
| 1787749297 | 35° C | 7% | 1007.3 hPa | 0 mm | - | - | - |
| 1787748733 | 34.44° C | 9% | 1007.4 hPa | 0 mm | - | - | - |
| 1787748496 | 34.44° C | 10% | 1007.3 hPa | 0 mm | - | - | - |
| 1787748190 | 33.89° C | 13% | 1007.4 hPa | 0 mm | - | - | - |
| 1787748127 | 33.89° C | 13% | 1007.4 hPa | 0 mm | - | - | - |
| 1787747434 | 32.22° C | 23% | 1007.7 hPa | 0 mm | - | - | - |
| 1787746740 | 31.11° C | 25% | 1007.7 hPa | 0 mm | - | - | - |
| 1787746373 | 30.56° C | 26% | 1007.9 hPa | 0 mm | - | - | - |
| 1787746007 | 30° C | 26% | 1008 hPa | 0 mm | - | - | - |
| 1787745393 | 29.44° C | 27% | 1008 hPa | 0 mm | - | - | - |
| 1787744852 | 29.44° C | 27% | 1007.9 hPa | 0 mm | - | - | - |
| 1787744606 | 29.44° C | 26% | 1008.1 hPa | 0 mm | - | - | - |
| 1787743487 | 29.44° C | 23% | 1008.4 hPa | 0 mm | - | - | - |
| 1787743239 | 30° C | 23% | 1008.5 hPa | 0 mm | - | - | - |
| 1787742628 | 30.56° C | 21% | 1008.5 hPa | 0 mm | - | - | - |
| 1787742384 | 31.11° C | 21% | 1008.7 hPa | 0 mm | - | - | - |
| 1787741527 | 31.67° C | 20% | 1008.7 hPa | 0 mm | - | - | - |
| 1787740672 | 31.67° C | 20% | 1009.3 hPa | 0 mm | - | - | - |
| 1787740060 | 32.78° C | 18% | 1009.4 hPa | 0 mm | - | - | - |
| 1787739938 | 32.78° C | 20% | 1009.4 hPa | 0 mm | - | - | - |
| 1787739568 | 33.33° C | 20% | 1009.3 hPa | 0 mm | - | - | - |
| 1787738835 | 33.33° C | 20% | 1009.6 hPa | 0 mm | - | - | - |
| 1787738590 | 33.33° C | 22% | 1009.7 hPa | 0 mm | - | - | - |
| 1787738468 | 32.78° C | 22% | 1009.7 hPa | 0 mm | - | - | - |
| 1787737978 | 32.78° C | 23% | 1009.8 hPa | 0 mm | - | - | - |
* Rain since midnight (hover to see other rain measurements)
** Current wind speed in m/s (hover to see current wind gust speed)